Time;durP1;ratioP1;P1;durP2;ratioP2;P2;SDS_P1;SDS_P2;PMS_P1;PMS_P2;Temp;Humidity;BMP_temperature;BMP_pressure;BME280_temperature;BME280_humidity;BME280_pressure;Samples;Min_cycle;Max_cycle;Signal;HPM_P1;HPM_P2
2022/03/17 00:00:20;;;;;;;21.27;12.50;;;;;;;6.76;100.00;61530.66;5093158;28;20453;-76
2022/03/17 00:02:48;;;;;;;20.57;11.87;;;;;;;6.77;100.00;61524.09;5092874;28;20530;-74
2022/03/17 00:05:19;;;;;;;23.90;12.53;;;;;;;7.13;100.00;61559.47;5093512;28;20531;-75
2022/03/17 00:07:46;;;;;;;21.53;12.10;;;;;;;7.08;100.00;61557.19;5092845;28;20503;-75
2022/03/17 00:10:23;;;;;;;21.43;12.63;;;;;;;7.20;100.00;61566.94;5093004;28;20445;-75
2022/03/17 00:12:51;;;;;;;17.87;12.57;;;;;;;7.05;100.00;61556.53;5093331;28;20441;-74
2022/03/17 00:15:18;;;;;;;27.07;15.57;;;;;;;7.04;100.00;61554.94;5093972;28;20449;-76
2022/03/17 00:17:46;;;;;;;26.60;17.23;;;;;;;6.99;100.00;61550.13;5079039;28;20490;-74
2022/03/17 00:20:18;;;;;;;30.57;16.50;;;;;;;7.04;100.00;61555.47;5072722;28;20450;-76
2022/03/17 00:22:46;;;;;;;29.87;16.77;;;;;;;6.01;100.00;61445.56;5072526;28;20478;-75
2022/03/17 00:25:13;;;;;;;30.90;16.57;;;;;;;7.03;100.00;61551.84;5072775;28;20520;-76
2022/03/17 00:27:42;;;;;;;27.47;17.13;;;;;;;6.86;100.00;61531.19;5072299;28;20539;-74
2022/03/17 00:30:10;;;;;;;31.53;18.57;;;;;;;6.48;100.00;61495.72;5072262;28;20434;-74
2022/03/17 00:32:38;;;;;;;41.20;21.23;;;;;;;5.94;100.00;61434.13;5072218;28;20859;-76
2022/03/17 00:37:55;;;;;;;34.60;22.23;;;;;;;6.96;100.00;61546.94;5072157;28;20433;-76
2022/03/17 00:40:24;;;;;;;32.83;19.70;;;;;;;6.88;100.00;61538.38;5071916;28;20450;-74
2022/03/17 00:42:53;;;;;;;30.57;18.40;;;;;;;6.95;100.00;61545.31;5071868;28;20537;-74
2022/03/17 00:45:21;;;;;;;28.23;17.60;;;;;;;6.51;100.00;61493.84;5072207;28;20507;-75
2022/03/17 00:47:48;;;;;;;26.43;16.83;;;;;;;6.72;100.00;61519.31;5071850;28;20497;-75
2022/03/17 00:50:17;;;;;;;29.30;16.20;;;;;;;6.70;100.00;61516.66;5054050;28;20446;-74
2022/03/17 00:52:44;;;;;;;27.30;14.43;;;;;;;6.64;100.00;61507.72;5072069;28;20451;-75
2022/03/17 00:55:15;;;;;;;27.97;15.77;;;;;;;6.75;100.00;61524.50;5071809;28;20983;-77
2022/03/17 00:57:44;;;;;;;26.43;15.07;;;;;;;6.52;100.00;61499.97;5071935;28;20443;-74
2022/03/17 01:00:14;;;;;;;28.40;15.43;;;;;;;6.12;100.00;61452.25;5071866;28;20439;-77
2022/03/17 01:02:46;;;;;;;27.87;16.17;;;;;;;5.97;100.00;61442.38;5053841;28;20442;-74
2022/03/17 01:05:14;;;;;;;29.00;17.03;;;;;;;6.05;100.00;61450.38;5072015;28;20525;-76
2022/03/17 01:07:43;;;;;;;27.20;16.67;;;;;;;6.06;100.00;61445.84;5071177;28;20451;-75
2022/03/17 01:10:16;;;;;;;29.80;18.30;;;;;;;5.95;100.00;61440.25;5078518;28;20434;-73
2022/03/17 01:12:44;;;;;;;29.37;17.83;;;;;;;6.03;100.00;61445.72;5083663;28;20431;-73
2022/03/17 01:15:12;;;;;;;30.60;18.10;;;;;;;6.12;100.00;61459.84;5073435;28;20500;-75
2022/03/17 01:17:39;;;;;;;31.10;18.33;;;;;;;5.94;100.00;61436.66;5083847;28;20465;-74
2022/03/17 01:20:10;;;;;;;29.20;17.70;;;;;;;5.15;100.00;61352.44;5091703;28;20441;-75
2022/03/17 01:22:38;;;;;;;28.40;16.73;;;;;;;5.97;100.00;61442.38;5091763;28;20470;-75
2022/03/17 01:25:12;;;;;;;19.13;12.37;;;;;;;5.96;100.00;61436.25;5091961;28;20546;-75
2022/03/17 01:27:42;;;;;;;15.70;9.70;;;;;;;5.85;100.00;61429.59;5084697;28;21027;-76
2022/03/17 01:30:10;;;;;;;11.30;7.77;;;;;;;5.56;100.00;61393.06;5073578;28;20454;-74
2022/03/17 01:32:39;;;;;;;11.03;7.17;;;;;;;5.79;100.00;61418.13;5071106;28;20451;-76
2022/03/17 01:35:09;;;;;;;11.47;6.83;;;;;;;5.82;100.00;61426.34;5071757;28;20828;-76
2022/03/17 01:37:38;;;;;;;9.03;5.40;;;;;;;5.97;100.00;61442.38;5071712;28;20475;-75
2022/03/17 01:40:05;;;;;;;9.90;5.50;;;;;;;5.33;100.00;61371.63;5071480;28;20446;-75
2022/03/17 01:45:26;;;;;;;6.47;4.20;;;;;;;6.02;100.00;61447.16;5069050;28;20489;-76
2022/03/17 01:51:02;;;;;;;5.70;4.03;;;;;;;5.77;100.00;61420.50;5069933;28;20460;-78
2022/03/17 01:53:29;;;;;;;5.93;4.40;;;;;;;5.66;100.00;61406.78;5071319;28;20504;-75
2022/03/17 01:55:58;;;;;;;7.13;5.13;;;;;;;5.90;100.00;61434.91;5070874;28;20482;-75
2022/03/17 01:58:26;;;;;;;7.13;4.93;;;;;;;5.80;100.00;61424.22;5071486;28;20438;-75
2022/03/17 02:00:55;;;;;;;5.67;3.70;;;;;;;5.25;100.00;61373.19;5070671;28;21077;-77
2022/03/17 02:03:22;;;;;;;5.80;4.50;;;;;;;5.49;100.00;61386.13;5053122;28;20474;-76
2022/03/17 02:05:50;;;;;;;6.67;4.10;;;;;;;5.24;100.00;61364.53;5070576;28;20453;-75
2022/03/17 02:08:18;;;;;;;7.93;4.93;;;;;;;5.19;100.00;61359.22;5071274;28;20500;-75
2022/03/17 02:13:31;;;;;;;4.80;3.23;;;;;;;5.14;100.00;61349.38;5071224;28;20434;-74
2022/03/17 02:16:04;;;;;;;4.37;3.20;;;;;;;5.01;100.00;61335.00;5070998;28;20486;-76
2022/03/17 02:18:36;;;;;;;3.33;2.83;;;;;;;4.96;100.00;61329.66;5071137;28;20478;-76
2022/03/17 02:21:08;;;;;;;4.47;3.00;;;;;;;5.05;100.00;61344.31;5073492;28;20442;-77
2022/03/17 02:26:25;;;;;;;4.50;3.23;;;;;;;4.91;100.00;61326.88;5074802;28;20968;-76
2022/03/17 02:28:52;;;;;;;3.40;2.97;;;;;;;5.50;100.00;61392.25;5074365;28;20437;-75
2022/03/17 02:31:19;;;;;;;4.57;3.00;;;;;;;5.36;100.00;61374.81;5074392;28;20451;-76
2022/03/17 02:33:50;;;;;;;3.27;2.80;;;;;;;5.39;100.00;61380.00;5074162;28;20462;-75
2022/03/17 02:36:18;;;;;;;4.17;3.20;;;;;;;4.56;100.00;61292.13;5056479;28;20447;-74
2022/03/17 02:38:47;;;;;;;3.70;3.00;;;;;;;4.80;100.00;61315.16;5074524;28;20435;-76
2022/03/17 02:41:22;;;;;;;5.63;3.37;;;;;;;5.39;100.00;61380.53;5073833;28;20442;-74
2022/03/17 02:43:52;;;;;;;6.63;4.37;;;;;;;5.35;100.00;61370.69;5074232;28;20863;-75
2022/03/17 02:46:21;;;;;;;5.70;3.80;;;;;;;4.98;100.00;61331.81;5074379;28;20442;-73
2022/03/17 02:48:49;;;;;;;8.83;3.53;;;;;;;5.47;100.00;61391.59;5074455;28;20455;-76
2022/03/17 02:51:18;;;;;;;5.30;3.63;;;;;;;5.56;100.00;61398.09;5074053;28;20447;-74
2022/03/17 02:53:48;;;;;;;4.73;3.67;;;;;;;5.61;100.00;61403.44;5073941;28;20527;-74
2022/03/17 02:56:15;;;;;;;3.57;3.20;;;;;;;5.55;100.00;61397.06;5073911;28;20481;-73
2022/03/17 02:58:43;;;;;;;3.90;3.37;;;;;;;5.49;100.00;61391.19;5074137;28;20450;-75
2022/03/17 03:01:11;;;;;;;5.73;3.70;;;;;;;5.38;100.00;61379.47;5073761;28;20511;-75
2022/03/17 03:03:38;;;;;;;5.23;3.73;;;;;;;5.26;100.00;61363.59;5055874;28;20484;-75
2022/03/17 03:06:06;;;;;;;7.40;4.47;;;;;;;4.74;100.00;61311.28;5073806;28;20830;-76
2022/03/17 03:08:35;;;;;;;6.13;3.97;;;;;;;5.61;100.00;61400.91;5073819;28;20442;-75
2022/03/17 03:11:03;;;;;;;7.03;5.13;;;;;;;5.70;100.00;61413.56;5074051;28;20435;-75
2022/03/17 03:13:31;;;;;;;8.57;5.90;;;;;;;5.31;100.00;61372.00;5073835;28;20431;-76
2022/03/17 03:15:59;;;;;;;7.97;5.87;;;;;;;5.70;100.00;61418.63;5073918;28;20462;-74
2022/03/17 03:18:27;;;;;;;10.33;6.50;;;;;;;4.36;100.00;61270.81;5085888;28;20474;-72
2022/03/17 03:20:57;;;;;;;9.80;6.50;;;;;;;4.82;100.00;61319.81;5074792;28;20435;-75
2022/03/17 03:23:26;;;;;;;7.17;5.50;;;;;;;5.73;100.00;61416.22;5073921;28;20449;-76
2022/03/17 03:25:54;;;;;;;8.60;5.90;;;;;;;5.55;100.00;61392.53;5073946;28;20438;-74
2022/03/17 03:28:22;;;;;;;8.13;5.77;;;;;;;5.56;100.00;61395.56;5073560;28;20434;-74
2022/03/17 03:30:51;;;;;;;8.60;6.33;;;;;;;5.27;100.00;61362.69;5073343;28;20446;-75
2022/03/17 03:33:18;;;;;;;9.43;5.93;;;;;;;4.42;100.00;61277.22;5073431;28;20508;-73
2022/03/17 03:38:30;;;;;;;10.47;7.23;;;;;;;4.59;100.00;61290.28;5073516;28;20488;-73
2022/03/17 03:40:59;;;;;;;12.40;7.43;;;;;;;4.94;100.00;61332.59;5073332;28;20528;-74
2022/03/17 03:43:32;;;;;;;13.20;8.10;;;;;;;5.00;100.00;61334.47;5074258;28;20485;-74
2022/03/17 03:46:02;;;;;;;12.60;8.30;;;;;;;4.96;100.00;61339.75;5075216;28;20439;-75
2022/03/17 03:48:31;;;;;;;14.50;8.63;;;;;;;4.92;100.00;61331.00;5075416;28;20504;-75
2022/03/17 03:51:01;;;;;;;15.37;9.37;;;;;;;4.61;100.00;61297.47;5073839;28;20527;-74
2022/03/17 03:54:12;;;;;;;18.90;8.90;;;;;;;4.72;100.00;61309.16;5073141;28;20438;-75
2022/03/17 03:56:18;;;;;;;13.73;9.07;;;;;;;4.57;100.00;61293.72;5072852;28;20512;-75
2022/03/17 03:58:52;;;;;;;14.63;9.80;;;;;;;4.45;100.00;61280.41;5073142;28;20431;-75
2022/03/17 04:01:20;;;;;;;14.40;9.40;;;;;;;3.97;100.00;61230.38;5073269;28;20451;-75
2022/03/17 04:03:52;;;;;;;16.27;9.97;;;;;;;4.15;100.00;61244.50;5072855;28;20443;-75
2022/03/17 04:06:20;;;;;;;16.80;10.20;;;;;;;4.30;100.00;61262.47;5072744;28;20470;-77
2022/03/17 04:08:52;;;;;;;15.20;9.87;;;;;;;4.35;100.00;61269.78;5072551;28;21049;-75
2022/03/17 04:11:19;;;;;;;15.00;9.80;;;;;;;4.33;100.00;61270.16;5072726;28;20871;-74
2022/03/17 04:13:49;;;;;;;14.67;8.93;;;;;;;4.44;100.00;61281.88;5054689;28;20470;-75
2022/03/17 04:16:16;;;;;;;13.50;9.07;;;;;;;4.41;100.00;61276.16;5072308;28;20455;-76
2022/03/17 04:18:47;;;;;;;14.87;9.27;;;;;;;4.15;100.00;61249.53;5072704;28;20489;-73
2022/03/17 04:21:14;;;;;;;12.83;8.97;;;;;;;4.42;100.00;61277.22;5072509;28;20447;-75
2022/03/17 04:23:43;;;;;;;15.97;9.70;;;;;;;4.48;100.00;61278.56;5072627;28;20438;-76
2022/03/17 04:26:12;;;;;;;14.27;8.57;;;;;;;4.33;100.00;61262.59;5054550;28;20512;-74
2022/03/17 04:28:41;;;;;;;15.10;9.83;;;;;;;4.26;100.00;61256.22;5072647;28;20816;-75
2022/03/17 04:31:09;;;;;;;14.53;9.27;;;;;;;4.15;100.00;61249.53;5072038;28;20512;-75
2022/03/17 04:33:37;;;;;;;14.30;9.40;;;;;;;3.88;100.00;61220.81;5072142;28;20446;-74
2022/03/17 04:36:04;;;;;;;16.10;9.60;;;;;;;3.99;100.00;61232.53;5072042;28;20431;-74
2022/03/17 04:38:32;;;;;;;14.30;8.43;;;;;;;3.62;100.00;61193.16;5071905;28;20450;-73
2022/03/17 04:41:00;;;;;;;13.77;9.37;;;;;;;3.76;100.00;61212.56;5072150;28;20439;-75
2022/03/17 04:43:27;;;;;;;16.13;9.60;;;;;;;3.96;100.00;61226.28;5053692;28;20457;-74
2022/03/17 04:45:57;;;;;;;15.30;8.90;;;;;;;3.96;100.00;61234.38;5071929;28;20491;-75
2022/03/17 04:48:26;;;;;;;13.10;8.60;;;;;;;4.18;100.00;61247.72;5071960;28;20492;-76
2022/03/17 04:50:53;;;;;;;13.10;8.10;;;;;;;4.02;100.00;61235.72;5072365;28;20492;-79
2022/03/17 04:53:32;;;;;;;14.03;8.17;;;;;;;4.07;100.00;61241.03;5072484;28;20457;-75
2022/03/17 04:56:05;;;;;;;13.30;8.43;;;;;;;4.28;100.00;61265.91;5072313;28;20533;-76
2022/03/17 04:58:35;;;;;;;13.63;8.47;;;;;;;3.82;100.00;61209.41;5072453;28;20431;-74
2022/03/17 05:01:02;;;;;;;13.77;7.77;;;;;;;3.76;100.00;61208.06;5072204;28;20458;-75
2022/03/17 05:03:31;;;;;;;14.03;8.40;;;;;;;3.66;100.00;61194.38;5072305;28;20807;-74
2022/03/17 05:05:59;;;;;;;12.90;8.40;;;;;;;3.94;100.00;61222.16;5053710;28;20490;-75
2022/03/17 05:08:27;;;;;;;13.77;8.53;;;;;;;3.03;100.00;61130.44;5071706;28;20470;-74
2022/03/17 05:10:55;;;;;;;12.70;8.40;;;;;;;3.83;100.00;61215.50;5071773;28;20517;-75
2022/03/17 05:13:25;;;;;;;13.43;8.20;;;;;;;3.85;100.00;61217.63;5071754;28;20442;-76
2022/03/17 05:15:54;;;;;;;11.43;8.03;;;;;;;3.96;100.00;61223.75;5071616;28;20556;-73
2022/03/17 05:18:23;;;;;;;13.10;7.93;;;;;;;3.66;100.00;61196.88;5070696;28;20485;-76
2022/03/17 05:20:54;;;;;;;13.40;7.87;;;;;;;3.82;100.00;61216.97;5071830;28;20437;-75
2022/03/17 05:23:23;;;;;;;13.00;8.27;;;;;;;3.87;100.00;61219.75;5071942;28;20431;-74
2022/03/17 05:25:53;;;;;;;12.43;7.67;;;;;;;3.64;100.00;61187.19;5087625;28;20597;-74
2022/03/17 05:28:24;;;;;;;14.27;8.53;;;;;;;3.09;100.00;61131.78;5053962;28;20450;-76
2022/03/17 05:30:55;;;;;;;12.87;7.13;;;;;;;3.57;100.00;61182.81;5071753;28;20439;-76
2022/03/17 05:33:22;;;;;;;12.30;7.63;;;;;;;3.45;100.00;61172.56;5071005;28;20439;-76
2022/03/17 05:35:55;;;;;;;11.73;7.37;;;;;;;3.86;100.00;61218.69;5053447;28;20478;-76
2022/03/17 05:38:22;;;;;;;11.20;7.07;;;;;;;3.90;100.00;61220.44;5091609;28;20445;-75
2022/03/17 05:40:51;;;;;;;12.73;7.87;;;;;;;3.59;100.00;61184.41;5091816;28;20437;-77
2022/03/17 05:43:19;;;;;;;11.40;7.07;;;;;;;3.83;100.00;61210.47;5073483;28;20840;-76
2022/03/17 05:45:46;;;;;;;11.27;6.73;;;;;;;3.82;100.00;61211.94;5091239;28;20493;-74
2022/03/17 05:48:14;;;;;;;10.23;7.10;;;;;;;3.79;100.00;61208.72;5091347;28;20491;-76
2022/03/17 05:50:45;;;;;;;11.77;7.47;;;;;;;3.53;100.00;61183.59;5073196;28;20441;-76
2022/03/17 05:53:13;;;;;;;8.83;6.20;;;;;;;3.73;100.00;61204.84;5091027;28;20453;-76
2022/03/17 05:55:41;;;;;;;11.53;6.60;;;;;;;4.00;100.00;61236.13;5095101;28;20515;-75
2022/03/17 05:58:09;;;;;;;9.53;5.80;;;;;;;4.16;100.00;61248.09;5095035;28;20449;-74
2022/03/17 06:00:37;;;;;;;9.73;5.80;;;;;;;4.05;100.00;61238.91;5095351;28;20457;-76
2022/03/17 06:03:05;;;;;;;10.97;6.50;;;;;;;4.14;100.00;61248.50;5095272;28;21033;-74
2022/03/17 06:05:33;;;;;;;8.93;5.70;;;;;;;4.20;100.00;61252.34;5096753;28;20476;-76
2022/03/17 06:08:01;;;;;;;8.33;6.13;;;;;;;3.80;100.00;61211.78;5094963;28;20438;-73
2022/03/17 06:10:35;;;;;;;13.50;6.80;;;;;;;3.34;100.00;61158.34;5095171;28;20449;-76
2022/03/17 06:13:06;;;;;;;10.70;6.50;;;;;;;4.16;100.00;61245.56;5077082;28;20448;-75
2022/03/17 06:15:38;;;;;;;10.57;6.77;;;;;;;4.21;100.00;61250.88;5095061;28;20452;-76
2022/03/17 06:18:07;;;;;;;12.07;7.10;;;;;;;4.11;100.00;61242.22;5095187;28;20465;-76
2022/03/17 06:20:36;;;;;;;16.43;8.57;;;;;;;4.04;100.00;61235.31;5095104;28;20551;-77
2022/03/17 06:23:08;;;;;;;18.27;9.20;;;;;;;3.24;100.00;61150.25;5097179;28;20487;-75
2022/03/17 06:25:54;;;;;;;16.37;8.10;;;;;;;3.77;100.00;61209.13;5097540;28;20512;-76
2022/03/17 06:28:22;;;;;;;19.57;9.07;;;;;;;3.96;100.00;61223.75;5097451;28;20449;-75
2022/03/17 06:30:49;;;;;;;15.80;8.83;;;;;;;3.26;100.00;61152.88;5097157;28;20437;-74
2022/03/17 06:33:20;;;;;;;13.60;8.00;;;;;;;3.82;100.00;61211.38;5096030;28;20446;-76
2022/03/17 06:35:49;;;;;;;12.77;6.93;;;;;;;3.89;100.00;61221.34;5095974;28;20438;-76
2022/03/17 06:38:18;;;;;;;11.03;6.37;;;;;;;4.02;100.00;61230.69;5058155;28;20453;-74
2022/03/17 06:40:46;;;;;;;13.90;7.07;;;;;;;4.02;100.00;61235.19;5075168;28;20476;-74
2022/03/17 06:43:16;;;;;;;11.13;6.70;;;;;;;4.21;100.00;61253.41;5074308;28;20990;-77
2022/03/17 06:45:45;;;;;;;9.30;6.47;;;;;;;3.94;100.00;61222.16;5075089;28;20482;-77
2022/03/17 06:48:14;;;;;;;9.97;6.97;;;;;;;4.36;100.00;61270.81;5074663;28;20851;-76
2022/03/17 06:50:42;;;;;;;8.93;5.83;;;;;;;4.24;100.00;61256.63;5074272;28;20500;-75
2022/03/17 06:55:52;;;;;;;8.87;5.80;;;;;;;4.32;100.00;61269.09;5093541;28;20477;-78
2022/03/17 06:58:21;;;;;;;8.63;5.87;;;;;;;4.55;100.00;61286.03;5095739;28;20890;-76
2022/03/17 07:00:48;;;;;;;11.27;6.13;;;;;;;4.24;100.00;61259.13;5077639;28;20535;-78
2022/03/17 07:03:16;;;;;;;13.67;6.53;;;;;;;4.63;100.00;61292.03;5094387;28;20985;-77
2022/03/17 07:05:43;;;;;;;11.13;6.93;;;;;;;4.16;100.00;61250.63;5093868;28;20530;-76
2022/03/17 07:08:12;;;;;;;10.97;7.03;;;;;;;4.07;100.00;61243.56;5094124;28;21028;-77
2022/03/17 07:10:39;;;;;;;12.50;7.70;;;;;;;4.61;100.00;61294.94;5093331;28;20801;-77
2022/03/17 07:13:06;;;;;;;11.27;6.67;;;;;;;4.51;100.00;61287.31;5094399;28;20436;-76
2022/03/17 07:15:34;;;;;;;10.93;7.07;;;;;;;4.48;100.00;61283.59;5094239;28;20861;-76
2022/03/17 07:18:02;;;;;;;10.63;7.23;;;;;;;4.37;100.00;61269.38;5094340;28;20473;-77
2022/03/17 07:20:30;;;;;;;14.27;8.40;;;;;;;4.11;100.00;61242.78;5095980;28;20448;-79
2022/03/17 07:22:59;;;;;;;14.97;9.37;;;;;;;4.34;100.00;61264.19;5104619;28;20446;-79
2022/03/17 07:25:27;;;;;;;18.20;9.97;;;;;;;3.79;100.00;61213.22;5101999;28;20542;-77
2022/03/17 07:27:55;;;;;;;13.63;9.13;;;;;;;4.39;100.00;61274.03;5093894;28;20498;-76
2022/03/17 07:30:31;;;;;;;17.07;9.37;;;;;;;4.50;100.00;61285.72;5090015;28;20465;-76
2022/03/17 07:33:00;;;;;;;13.60;8.33;;;;;;;4.11;100.00;61242.78;5079930;28;20503;-77
2022/03/17 07:35:31;;;;;;;12.60;8.63;;;;;;;4.67;100.00;61306.38;5074141;28;20479;-76
2022/03/17 07:37:59;;;;;;;19.27;10.07;;;;;;;4.04;100.00;61232.81;5072895;28;20452;-75
2022/03/17 07:40:28;;;;;;;14.67;9.23;;;;;;;4.11;100.00;61242.78;5094118;28;20449;-78
2022/03/17 07:42:55;;;;;;;16.50;9.83;;;;;;;3.92;100.00;61222.56;5072683;28;20459;-78
2022/03/17 07:45:23;;;;;;;17.27;8.97;;;;;;;4.29;100.00;61259.41;5073776;28;20569;-76
2022/03/17 07:47:52;;;;;;;26.23;11.00;;;;;;;4.39;100.00;61276.56;5084299;28;20819;-76
2022/03/17 07:50:21;;;;;;;12.30;7.80;;;;;;;4.35;100.00;61269.78;5074839;28;20528;-78
2022/03/17 07:52:48;;;;;;;12.50;8.03;;;;;;;4.55;100.00;61291.06;5091444;28;21029;-76
2022/03/17 07:55:18;;;;;;;12.03;7.90;;;;;;;4.56;100.00;61292.13;5089824;28;20454;-75
2022/03/17 07:57:48;;;;;;;12.17;8.03;;;;;;;4.17;100.00;61251.66;5090199;28;20972;-75
2022/03/17 08:00:18;;;;;;;11.07;7.00;;;;;;;4.35;100.00;61264.72;5084362;28;20516;-77
2022/03/17 08:02:49;;;;;;;11.13;7.40;;;;;;;3.67;100.00;61203.50;5077768;28;20459;-78
2022/03/17 08:05:30;;;;;;;11.17;7.17;;;;;;;4.48;100.00;61289.19;5057252;28;20478;-78
2022/03/17 08:08:04;;;;;;;9.83;6.83;;;;;;;4.31;100.00;61255.94;5084958;28;20438;-75
2022/03/17 08:10:35;;;;;;;17.13;7.90;;;;;;;4.37;100.00;61266.88;5092054;28;20975;-75
2022/03/17 08:13:08;;;;;;;9.10;6.57;;;;;;;4.93;100.00;61329.00;5092588;28;20446;-76
2022/03/17 08:15:36;;;;;;;11.23;7.00;;;;;;;4.74;100.00;61311.28;5093296;28;20438;-77
2022/03/17 08:18:08;;;;;;;10.53;7.13;;;;;;;4.70;100.00;61305.03;5072717;28;20484;-75
2022/03/17 08:20:39;;;;;;;13.07;7.80;;;;;;;5.26;100.00;61366.69;5092621;28;20442;-76
2022/03/17 08:23:11;;;;;;;12.63;7.70;;;;;;;5.09;100.00;61351.09;5094082;28;20446;-77
2022/03/17 08:25:39;;;;;;;14.70;8.60;;;;;;;4.84;100.00;61312.38;5093262;28;20570;-75
2022/03/17 08:28:08;;;;;;;13.53;8.23;;;;;;;4.68;100.00;61299.84;5095883;28;20442;-75
2022/03/17 08:30:37;;;;;;;13.50;8.10;;;;;;;4.82;100.00;61314.75;5094618;28;21034;-74
2022/03/17 08:33:06;;;;;;;15.50;8.83;;;;;;;4.80;100.00;61317.69;5091997;28;20535;-76
2022/03/17 08:35:33;;;;;;;15.67;9.10;;;;;;;4.35;100.00;61275.34;5091043;28;20458;-77
2022/03/17 08:38:05;;;;;;;16.97;10.27;;;;;;;4.87;100.00;61325.13;5089832;28;20446;-74
2022/03/17 08:40:44;;;;;;;14.97;10.53;;;;;;;4.84;100.00;61319.94;5091350;28;20519;-74
2022/03/17 08:43:13;;;;;;;17.37;10.67;;;;;;;4.95;100.00;61338.72;5091561;28;21002;-77
2022/03/17 08:51:12;;;;;;;17.27;10.57;;;;;;;4.75;100.00;61304.78;5092114;28;20884;-74
2022/03/17 08:53:41;;;;;;;19.70;10.83;;;;;;;4.99;100.00;61337.91;5092055;28;20951;-75
2022/03/17 08:56:11;;;;;;;15.23;11.03;;;;;;;4.81;100.00;61314.22;5073786;28;20537;-77
2022/03/17 08:58:38;;;;;;;18.67;10.63;;;;;;;5.23;100.00;61363.50;5092059;28;20940;-76
2022/03/17 09:01:06;;;;;;;20.50;11.03;;;;;;;5.26;100.00;61366.69;5073702;28;20489;-76
2022/03/17 09:03:33;;;;;;;19.37;11.47;;;;;;;5.14;100.00;61353.88;5091955;28;20457;-74
2022/03/17 09:06:03;;;;;;;22.17;12.57;;;;;;;5.05;100.00;61344.31;5073676;28;20481;-74
2022/03/17 09:08:31;;;;;;;20.67;12.93;;;;;;;5.06;100.00;61342.84;5073883;28;20956;-75
2022/03/17 09:11:00;;;;;;;20.20;12.40;;;;;;;4.77;100.00;61317.00;5073508;28;20826;-76
2022/03/17 09:13:30;;;;;;;18.67;12.67;;;;;;;5.37;100.00;61378.41;5092089;28;20552;-77
2022/03/17 09:15:57;;;;;;;18.10;12.17;;;;;;;4.94;100.00;61332.59;5073751;28;20455;-77
2022/03/17 09:18:27;;;;;;;19.30;12.73;;;;;;;5.62;100.00;61402.50;5091445;28;20481;-75
2022/03/17 09:20:56;;;;;;;19.73;13.17;;;;;;;5.96;100.00;61438.78;5091711;28;20433;-75
2022/03/17 09:23:23;;;;;;;22.63;12.40;;;;;;;6.01;100.00;61450.63;5091803;28;20816;-75
2022/03/17 09:25:52;;;;;;;17.97;11.67;;;;;;;5.21;100.00;61358.84;5091929;28;20998;-76
2022/03/17 09:28:20;;;;;;;19.60;12.23;;;;;;;5.94;100.00;61438.63;5091610;28;20438;-75
2022/03/17 09:30:50;;;;;;;20.63;10.83;;;;;;;6.29;100.00;61475.97;5091288;28;20450;-75
2022/03/17 09:33:19;;;;;;;20.00;12.73;;;;;;;6.18;100.00;61459.16;5091197;28;20855;-75
2022/03/17 09:35:47;;;;;;;19.73;12.43;;;;;;;6.21;100.00;61466.91;5080665;28;20509;-74
2022/03/17 09:38:18;;;;;;;18.23;12.43;;;;;;;6.08;100.00;61453.03;5075977;28;20931;-76
2022/03/17 09:40:45;;;;;;;20.73;12.70;;;;;;;5.88;100.00;61432.78;5069891;28;20446;-77
2022/03/17 09:43:19;;;;;;;19.80;12.07;;;;;;;4.96;100.00;61335.25;5087861;28;20483;-76
2022/03/17 09:45:52;;;;;;;18.27;12.47;;;;;;;5.40;100.00;61376.53;5070263;28;20482;-74
2022/03/17 09:48:22;;;;;;;20.17;11.53;;;;;;;5.86;100.00;61430.63;5071095;28;20525;-76
2022/03/17 09:50:58;;;;;;;19.60;12.00;;;;;;;5.64;100.00;61406.63;5071856;28;20441;-76
2022/03/17 09:53:35;;;;;;;14.77;9.70;;;;;;;5.79;100.00;61425.69;5071548;28;20767;-78
2022/03/17 09:56:03;;;;;;;17.87;11.10;;;;;;;5.73;100.00;61416.78;5071157;28;20438;-78
2022/03/17 09:58:34;;;;;;;15.00;10.43;;;;;;;5.33;100.00;61373.59;5070961;28;20481;-75
2022/03/17 10:01:07;;;;;;;15.47;11.17;;;;;;;5.74;100.00;61420.34;5071880;28;20520;-79
2022/03/17 10:03:35;;;;;;;15.57;11.23;;;;;;;5.58;100.00;61395.72;5071193;28;20488;-77
2022/03/17 10:06:07;;;;;;;19.83;12.47;;;;;;;5.57;100.00;61399.19;5071123;28;20482;-75
2022/03/17 10:08:37;;;;;;;18.00;8.30;;;;;;;5.30;100.00;61360.28;5071138;28;20961;-79
2022/03/17 10:11:06;;;;;;;10.40;7.60;;;;;;;5.37;100.00;61378.41;5071279;28;20985;-75
2022/03/17 10:13:44;;;;;;;11.23;8.00;;;;;;;5.15;100.00;61349.91;5071043;28;20447;-74
2022/03/17 10:16:17;;;;;;;16.70;10.07;;;;;;;5.06;100.00;61345.38;5071505;28;20793;-77
2022/03/17 10:18:47;;;;;;;15.67;9.30;;;;;;;4.98;100.00;61334.84;5070891;28;20480;-75
2022/03/17 10:21:18;;;;;;;14.33;9.40;;;;;;;5.21;100.00;61356.31;5071163;28;20530;-76
2022/03/17 10:23:56;;;;;;;15.30;9.90;;;;;;;5.07;100.00;61346.44;5071302;28;20519;-76
2022/03/17 10:26:37;;;;;;;13.77;8.63;;;;;;;5.48;100.00;61390.13;5069722;28;20601;-77
2022/03/17 10:29:12;;;;;;;19.77;13.27;;;;;;;5.12;100.00;61351.75;5071116;28;20430;-77
2022/03/17 10:32:03;;;;;;;18.37;9.70;;;;;;;5.39;100.00;61378.00;5070181;28;20458;-74
2022/03/17 10:34:33;;;;;;;16.67;8.97;;;;;;;5.17;100.00;61354.56;5069581;28;20877;-75
2022/03/17 10:37:12;;;;;;;13.03;9.00;;;;;;;5.51;100.00;61395.84;5079326;28;21193;-76
2022/03/17 10:39:44;;;;;;;15.43;8.90;;;;;;;5.42;100.00;61378.66;5090815;28;20810;-77
2022/03/17 10:42:20;;;;;;;12.40;8.63;;;;;;;5.69;100.00;61409.97;5088454;28;20533;-78
2022/03/17 10:44:50;;;;;;;65.03;35.77;;;;;;;5.27;100.00;61367.75;5074442;28;20442;-76
2022/03/17 10:47:31;;;;;;;32.77;19.53;;;;;;;5.50;100.00;61392.25;5056407;28;20923;-76
2022/03/17 10:50:08;;;;;;;15.73;10.00;;;;;;;4.87;100.00;61325.13;5078562;28;20466;-75
2022/03/17 10:53:00;;;;;;;19.37;10.97;;;;;;;5.66;100.00;61406.78;5090450;28;20879;-77
2022/03/17 10:55:30;;;;;;;16.07;10.97;;;;;;;5.71;100.00;61414.09;5075396;28;20445;-74
2022/03/17 10:58:13;;;;;;;17.73;11.27;;;;;;;5.49;100.00;61391.19;5093851;28;20955;-75
2022/03/17 11:00:47;;;;;;;15.40;10.17;;;;;;;5.72;100.00;61415.69;5076110;28;20470;-77
2022/03/17 11:03:17;;;;;;;19.00;10.53;;;;;;;5.61;100.00;61403.97;5095030;28;20441;-75
2022/03/17 11:05:45;;;;;;;17.10;10.60;;;;;;;5.58;100.00;61403.31;5101817;28;20457;-75
2022/03/17 11:08:14;;;;;;;17.40;10.60;;;;;;;5.82;100.00;61425.81;5097220;28;21014;-75
2022/03/17 11:10:42;;;;;;;14.53;9.03;;;;;;;5.80;100.00;61421.69;5075287;28;20475;-75
2022/03/17 11:13:11;;;;;;;13.20;8.30;;;;;;;6.00;100.00;61441.97;5093769;28;20444;-73
2022/03/17 11:15:42;;;;;;;10.60;7.57;;;;;;;6.15;100.00;61461.03;5093726;28;20445;-74
2022/03/17 11:18:16;;;;;;;13.17;8.23;;;;;;;5.46;100.00;61390.50;5092958;28;20507;-76
2022/03/17 11:20:46;;;;;;;12.77;7.60;;;;;;;6.15;100.00;61460.50;5093443;28;20429;-77
2022/03/17 11:23:20;;;;;;;19.07;13.80;;;;;;;5.98;100.00;61442.91;5074691;28;20461;-77
2022/03/17 11:25:57;;;;;;;14.13;8.27;;;;;;;5.88;100.00;61432.22;5072852;28;20458;-73
2022/03/17 11:28:40;;;;;;;8.73;5.77;;;;;;;6.08;100.00;61450.50;5074281;28;20536;-75
2022/03/17 11:31:08;;;;;;;16.20;8.17;;;;;;;5.77;100.00;61421.03;5092952;28;20454;-74
2022/03/17 11:33:41;;;;;;;10.93;6.50;;;;;;;5.65;100.00;61405.72;5093162;28;20499;-76
2022/03/17 11:36:21;;;;;;;7.20;4.07;;;;;;;5.28;100.00;61366.28;5092740;28;20446;-74
2022/03/17 11:39:02;;;;;;;12.13;6.73;;;;;;;4.19;100.00;61253.25;5075577;28;20456;-77
2022/03/17 11:41:32;;;;;;;16.33;8.60;;;;;;;5.25;100.00;61365.09;5098175;28;20448;-74
2022/03/17 11:44:02;;;;;;;31.33;11.67;;;;;;;5.17;100.00;61354.56;5095980;28;20820;-76
2022/03/17 11:46:43;;;;;;;21.20;9.37;;;;;;;5.09;100.00;61348.56;5093057;28;20534;-77
2022/03/17 11:49:44;;;;;;;79.93;37.17;;;;;;;5.26;100.00;61366.69;5093150;28;20472;-75
2022/03/17 11:52:14;;;;;;;36.37;19.27;;;;;;;5.29;100.00;61372.41;5093039;28;20426;-77
2022/03/17 11:54:40;;;;;;;11.63;7.37;;;;;;;4.96;100.00;61332.19;5093157;28;20456;-76
2022/03/17 11:57:08;;;;;;;16.23;6.80;;;;;;;5.13;100.00;61357.88;5093047;28;20975;-77
2022/03/17 11:59:55;;;;;;;20.20;10.87;;;;;;;5.20;100.00;61357.22;5088770;28;20441;-75
2022/03/17 12:05:14;;;;;;;11.23;6.60;;;;;;;5.30;100.00;61367.88;5076477;28;20460;-74